Time;durP1;ratioP1;P1;durP2;ratioP2;P2;SDS_P1;SDS_P2;PMS_P1;PMS_P2;Temp;Humidity;BMP_temperature;BMP_pressure;BME280_temperature;BME280_humidity;BME280_pressure;Samples;Min_cycle;Max_cycle;Signal;HPM_P1;HPM_P2
2023/06/28 00:01:27;;;;;;;4.35;1.38;;;19.60;88.00;;;;;;5018072;28;20198;-68
2023/06/28 00:03:55;;;;;;;3.45;1.05;;;19.50;88.30;;;;;;5017102;28;20265;-67
2023/06/28 00:06:21;;;;;;;3.35;1.20;;;19.50;87.80;;;;;;5017682;28;20609;-68
2023/06/28 00:08:49;;;;;;;2.67;1.20;;;19.50;88.50;;;;;;5018230;28;20258;-68
2023/06/28 00:11:15;;;;;;;2.20;1.20;;;19.40;88.80;;;;;;5017621;28;20182;-68
2023/06/28 00:13:42;;;;;;;2.35;1.27;;;19.40;89.20;;;;;;5017762;28;20187;-67
2023/06/28 00:16:08;;;;;;;2.03;1.00;;;19.40;89.50;;;;;;5017470;28;20178;-68
2023/06/28 00:18:34;;;;;;;2.67;1.30;;;19.30;89.70;;;;;;5012276;28;20206;-68
2023/06/28 00:21:02;;;;;;;2.20;1.10;;;19.30;90.00;;;;;;5015677;28;20218;-67
2023/06/28 00:23:32;;;;;;;1.63;0.93;;;19.20;90.50;;;;;;5017958;28;20254;-67
2023/06/28 00:25:58;;;;;;;2.63;1.17;;;19.30;90.30;;;;;;5017645;28;20209;-68
2023/06/28 00:28:26;;;;;;;1.67;1.05;;;19.30;90.40;;;;;;5017441;28;20171;-68
2023/06/28 00:30:52;;;;;;;3.28;1.20;;;19.30;90.40;;;;;;5017534;28;20179;-68
2023/06/28 00:33:20;;;;;;;1.70;1.20;;;19.30;90.50;;;;;;5009825;28;20186;-67
2023/06/28 00:35:49;;;;;;;2.75;1.30;;;19.30;90.70;;;;;;5016338;28;20171;-67
2023/06/28 00:38:17;;;;;;;1.90;1.00;;;19.20;90.90;;;;;;5016735;28;20265;-67
2023/06/28 00:40:45;;;;;;;1.73;0.98;;;19.20;91.20;;;;;;5017475;28;20301;-68
2023/06/28 00:43:10;;;;;;;2.25;1.08;;;19.20;91.00;;;;;;5016440;28;20244;-67
2023/06/28 00:45:36;;;;;;;4.53;1.20;;;19.20;91.10;;;;;;5022822;28;20183;-68
2023/06/28 00:48:02;;;;;;;3.13;1.48;;;19.20;91.20;;;;;;5017134;28;20174;-68
2023/06/28 00:50:28;;;;;;;2.92;1.20;;;19.20;91.30;;;;;;5016692;28;20202;-68
2023/06/28 00:52:54;;;;;;;1.60;0.93;;;19.20;91.60;;;;;;5013654;28;20186;-69
2023/06/28 00:55:21;;;;;;;1.60;0.90;;;19.20;91.60;;;;;;5005867;28;20214;-70
2023/06/28 00:57:47;;;;;;;3.40;1.20;;;19.20;91.60;;;;;;5004197;28;20230;-70
2023/06/28 01:00:13;;;;;;;2.72;1.30;;;19.20;91.70;;;;;;5017489;28;20233;-70
2023/06/28 01:02:44;;;;;;;2.95;1.25;;;19.20;91.80;;;;;;5017278;28;20270;-69
2023/06/28 01:05:13;;;;;;;3.00;1.30;;;19.20;91.90;;;;;;5013942;28;20175;-70
2023/06/28 01:07:39;;;;;;;3.08;1.10;;;19.10;92.00;;;;;;5026077;28;20210;-70
2023/06/28 01:10:06;;;;;;;1.85;1.10;;;19.10;92.00;;;;;;5003676;28;20207;-69
2023/06/28 01:12:33;;;;;;;1.90;1.38;;;19.10;92.20;;;;;;5012966;28;20179;-70
2023/06/28 01:14:59;;;;;;;2.80;1.40;;;19.10;92.60;;;;;;5026037;28;20214;-70
2023/06/28 01:17:27;;;;;;;4.40;1.25;;;19.10;92.50;;;;;;5016512;28;20394;-70
2023/06/28 01:19:58;;;;;;;2.25;1.20;;;19.10;92.80;;;;;;5016210;28;20206;-69
2023/06/28 01:22:26;;;;;;;2.63;1.30;;;19.00;92.90;;;;;;5016667;28;20208;-69
2023/06/28 01:24:56;;;;;;;2.10;0.90;;;19.00;92.90;;;;;;5015949;28;20178;-68
2023/06/28 01:27:22;;;;;;;3.10;1.25;;;19.00;93.30;;;;;;5016982;28;20175;-69
2023/06/28 01:29:48;;;;;;;2.03;0.90;;;18.90;93.00;;;;;;5013103;28;20206;-68
2023/06/28 01:32:16;;;;;;;3.00;0.93;;;18.90;93.40;;;;;;5004707;28;20175;-68
2023/06/28 01:34:41;;;;;;;2.97;1.00;;;18.90;93.30;;;;;;5010162;28;20193;-67
2023/06/28 01:37:09;;;;;;;3.75;1.13;;;19.00;93.30;;;;;;5020955;28;20261;-69
2023/06/28 01:39:36;;;;;;;2.90;1.20;;;19.00;93.70;;;;;;5016176;28;20279;-69
2023/06/28 01:42:03;;;;;;;1.63;0.95;;;18.90;93.60;;;;;;5016607;28;20226;-68
2023/06/28 01:44:30;;;;;;;2.63;1.10;;;18.90;93.70;;;;;;5016431;28;20195;-69
2023/06/28 01:47:00;;;;;;;1.70;1.00;;;18.90;93.90;;;;;;5016172;28;20183;-69
2023/06/28 01:49:26;;;;;;;2.40;0.95;;;18.90;94.20;;;;;;5017947;28;20202;-68
2023/06/28 01:51:55;;;;;;;1.33;1.00;;;18.90;94.10;;;;;;5021512;28;20255;-69
2023/06/28 01:54:21;;;;;;;1.55;1.10;;;18.90;94.40;;;;;;5015929;28;20226;-69
2023/06/28 01:56:47;;;;;;;1.13;0.95;;;18.90;94.20;;;;;;5014072;28;20225;-68
2023/06/28 01:59:15;;;;;;;2.08;1.20;;;18.90;94.40;;;;;;5022113;28;20190;-69
2023/06/28 02:01:45;;;;;;;4.15;1.10;;;18.90;95.10;;;;;;5015775;28;20217;-69
2023/06/28 02:04:11;;;;;;;1.35;0.90;;;18.90;94.80;;;;;;5016037;28;20178;-69
2023/06/28 02:06:40;;;;;;;1.60;1.20;;;18.80;94.70;;;;;;5016443;28;20200;-69
2023/06/28 02:09:08;;;;;;;1.50;1.10;;;18.80;95.20;;;;;;5015649;28;20175;-68
2023/06/28 02:11:37;;;;;;;3.65;1.20;;;18.80;95.20;;;;;;5013596;28;20180;-68
2023/06/28 02:14:04;;;;;;;1.98;1.10;;;18.70;95.60;;;;;;5009663;28;20273;-69
2023/06/28 02:16:31;;;;;;;1.77;1.10;;;18.70;95.50;;;;;;5010057;28;20175;-69
2023/06/28 02:19:01;;;;;;;1.10;0.90;;;18.70;95.60;;;;;;5015465;28;20174;-68
2023/06/28 02:21:26;;;;;;;1.58;0.98;;;18.70;96.10;;;;;;5015528;28;20210;-68
2023/06/28 02:23:52;;;;;;;1.75;1.10;;;18.70;95.90;;;;;;5015101;28;20171;-67
2023/06/28 02:26:18;;;;;;;3.22;1.20;;;18.70;96.10;;;;;;5015400;28;20171;-68
2023/06/28 02:28:46;;;;;;;1.58;1.13;;;18.60;96.30;;;;;;5020053;28;20202;-68
2023/06/28 02:31:11;;;;;;;2.78;1.25;;;18.70;96.70;;;;;;5015028;28;20182;-68
2023/06/28 02:33:39;;;;;;;1.70;0.90;;;18.60;96.70;;;;;;5014999;28;20214;-68
2023/06/28 02:36:05;;;;;;;3.90;1.17;;;18.70;96.70;;;;;;5005399;28;20174;-69
2023/06/28 02:38:30;;;;;;;1.55;0.88;;;18.70;96.80;;;;;;5027286;28;20178;-68
2023/06/28 02:40:56;;;;;;;2.03;1.17;;;18.70;96.80;;;;;;5013708;28;20210;-68
2023/06/28 02:43:24;;;;;;;3.10;1.13;;;18.70;96.90;;;;;;5015329;28;20177;-68
2023/06/28 02:45:50;;;;;;;2.90;1.05;;;18.70;97.20;;;;;;5015487;28;20185;-68
2023/06/28 02:48:15;;;;;;;1.63;0.90;;;18.80;97.30;;;;;;5030619;28;20179;-68
2023/06/28 02:50:41;;;;;;;3.00;1.20;;;18.70;97.10;;;;;;4999119;28;20214;-68
2023/06/28 02:53:08;;;;;;;1.75;1.20;;;18.70;97.10;;;;;;5015135;28;20249;-68
2023/06/28 02:55:34;;;;;;;1.67;1.00;;;18.70;97.20;;;;;;5014247;28;20182;-68
2023/06/28 02:58:01;;;;;;;2.30;1.20;;;18.70;97.30;;;;;;5005423;28;20191;-69
2023/06/28 03:00:27;;;;;;;2.75;1.15;;;18.70;97.50;;;;;;4998534;28;20203;-69
2023/06/28 03:02:55;;;;;;;1.55;1.17;;;18.70;97.60;;;;;;5015091;28;20187;-69
2023/06/28 03:05:21;;;;;;;4.20;1.38;;;18.70;98.00;;;;;;5014075;28;20208;-69
2023/06/28 03:07:46;;;;;;;1.92;1.35;;;18.70;97.80;;;;;;5015028;28;20256;-69
2023/06/28 03:10:12;;;;;;;2.03;1.20;;;18.70;97.90;;;;;;5015261;28;20186;-68
2023/06/28 03:12:37;;;;;;;2.50;1.25;;;18.70;98.00;;;;;;5013387;28;20281;-69
2023/06/28 03:15:03;;;;;;;2.03;1.27;;;18.70;98.10;;;;;;5023440;28;20178;-69
2023/06/28 03:17:29;;;;;;;1.75;1.20;;;18.70;98.20;;;;;;5015579;28;20248;-68
2023/06/28 03:19:54;;;;;;;3.35;1.30;;;18.70;98.30;;;;;;5013791;28;20202;-69
2023/06/28 03:22:20;;;;;;;3.10;1.23;;;18.70;98.30;;;;;;5014895;28;20185;-69
2023/06/28 03:24:51;;;;;;;1.77;1.10;;;18.70;98.30;;;;;;4996612;28;20200;-69
2023/06/28 03:27:17;;;;;;;1.67;1.15;;;18.70;98.30;;;;;;4995511;28;20431;-69
2023/06/28 03:29:44;;;;;;;1.98;1.10;;;18.70;98.40;;;;;;5013265;28;20175;-69
2023/06/28 03:32:10;;;;;;;1.92;1.13;;;18.70;98.60;;;;;;5021177;28;20469;-69
2023/06/28 03:34:36;;;;;;;1.85;1.17;;;18.70;98.70;;;;;;5013399;28;20189;-69
2023/06/28 03:37:02;;;;;;;2.47;1.17;;;18.70;98.80;;;;;;5013685;28;20210;-69
2023/06/28 03:39:28;;;;;;;1.55;1.15;;;18.70;99.00;;;;;;5014707;28;20178;-69
2023/06/28 03:41:56;;;;;;;3.92;1.42;;;18.70;99.00;;;;;;4995772;28;20206;-69
2023/06/28 03:44:21;;;;;;;3.80;1.45;;;18.70;99.30;;;;;;5011872;28;20206;-69
2023/06/28 03:46:47;;;;;;;3.53;1.13;;;18.70;99.20;;;;;;5013916;28;20183;-69
2023/06/28 03:49:12;;;;;;;1.67;1.15;;;18.70;99.20;;;;;;5007879;28;20171;-69
2023/06/28 03:51:38;;;;;;;3.65;1.52;;;18.70;99.20;;;;;;5014504;28;20210;-69
2023/06/28 03:54:06;;;;;;;2.72;1.17;;;18.70;99.20;;;;;;5013474;28;20257;-69
2023/06/28 03:56:36;;;;;;;2.03;1.17;;;18.70;99.30;;;;;;5014039;28;20199;-69
2023/06/28 03:59:04;;;;;;;2.03;1.23;;;18.70;99.80;;;;;;5014227;28;20182;-69
2023/06/28 04:01:30;;;;;;;2.63;1.15;;;18.70;99.60;;;;;;5009092;28;20210;-70
2023/06/28 04:03:55;;;;;;;2.38;1.17;;;18.80;99.70;;;;;;5014333;28;20213;-69
2023/06/28 04:06:21;;;;;;;2.45;1.20;;;18.80;99.70;;;;;;5014361;28;20171;-69
2023/06/28 04:08:47;;;;;;;1.65;1.20;;;18.80;99.80;;;;;;5015964;28;20218;-69
2023/06/28 04:11:13;;;;;;;2.03;1.08;;;18.80;99.90;;;;;;5010944;28;20199;-70
2023/06/28 04:13:41;;;;;;;2.08;1.23;;;18.80;99.90;;;;;;5011289;28;20233;-69
2023/06/28 04:16:09;;;;;;;1.85;1.30;;;18.90;99.90;;;;;;5029015;28;20240;-69
2023/06/28 04:18:34;;;;;;;2.00;1.30;;;18.90;99.90;;;;;;5007719;28;20221;-69
2023/06/28 04:21:03;;;;;;;2.13;1.08;;;18.90;99.80;;;;;;5011033;28;20243;-70
2023/06/28 04:23:28;;;;;;;1.90;1.17;;;18.80;99.90;;;;;;4994720;28;20180;-69
2023/06/28 04:25:55;;;;;;;3.08;1.63;;;18.80;99.80;;;;;;5000373;28;20178;-68
2023/06/28 04:28:21;;;;;;;1.42;0.90;;;18.80;99.80;;;;;;5011437;28;20206;-69
2023/06/28 04:30:49;;;;;;;1.55;1.00;;;18.70;99.90;;;;;;5014190;28;20175;-69
2023/06/28 04:33:18;;;;;;;1.73;1.20;;;18.70;99.90;;;;;;5007820;28;20176;-70
2023/06/28 04:35:47;;;;;;;2.40;1.30;;;18.70;99.90;;;;;;4999282;28;20179;-70
2023/06/28 04:38:13;;;;;;;2.55;1.35;;;18.70;99.90;;;;;;5014058;28;20191;-69
2023/06/28 04:40:39;;;;;;;3.50;2.38;;;18.70;99.90;;;;;;5014390;28;20199;-70
2023/06/28 04:43:10;;;;;;;3.38;1.83;;;18.70;99.90;;;;;;5013730;28;20305;-70
2023/06/28 04:45:39;;;;;;;1.83;1.40;;;18.60;99.90;;;;;;5007533;28;20189;-70
2023/06/28 04:48:06;;;;;;;2.80;1.50;;;18.70;99.90;;;;;;5023086;28;20186;-69
2023/06/28 04:50:36;;;;;;;2.53;1.10;;;18.60;99.90;;;;;;5025584;28;20359;-70
2023/06/28 04:53:06;;;;;;;3.00;1.35;;;18.70;99.90;;;;;;5016686;28;20202;-70
2023/06/28 04:55:34;;;;;;;1.80;1.00;;;18.70;99.90;;;;;;5017893;28;20182;-70
2023/06/28 04:58:07;;;;;;;1.85;1.25;;;18.70;99.90;;;;;;5017763;28;20257;-70
2023/06/28 05:00:33;;;;;;;3.38;1.40;;;18.70;99.90;;;;;;5011709;28;20203;-69
2023/06/28 05:03:01;;;;;;;2.58;1.50;;;18.70;99.90;;;;;;4998135;28;20231;-72
2023/06/28 05:05:27;;;;;;;3.45;1.60;;;18.80;99.90;;;;;;5015312;28;20298;-72
2023/06/28 05:07:53;;;;;;;2.97;1.48;;;18.70;99.90;;;;;;5005015;28;20214;-72
2023/06/28 05:10:24;;;;;;;2.33;1.27;;;18.80;99.90;;;;;;5016439;28;20194;-70
2023/06/28 05:12:52;;;;;;;3.45;1.40;;;18.90;99.90;;;;;;5013777;28;20187;-72
2023/06/28 05:15:21;;;;;;;3.20;1.23;;;18.90;99.90;;;;;;5011956;28;20512;-71
2023/06/28 05:17:46;;;;;;;4.28;1.92;;;18.90;99.90;;;;;;5007638;28;20179;-72
2023/06/28 05:20:12;;;;;;;2.30;1.23;;;18.90;99.90;;;;;;4996893;28;20265;-72
2023/06/28 05:22:42;;;;;;;3.10;1.40;;;19.00;99.90;;;;;;5006492;28;20185;-72
2023/06/28 05:25:07;;;;;;;2.15;1.25;;;19.00;99.90;;;;;;5016643;28;20170;-70
2023/06/28 05:27:33;;;;;;;4.25;1.63;;;19.10;99.90;;;;;;5012991;28;20181;-72
2023/06/28 05:29:59;;;;;;;3.47;1.50;;;19.10;99.90;;;;;;5028964;28;20178;-72
2023/06/28 05:32:24;;;;;;;2.78;1.30;;;19.10;99.90;;;;;;5016482;28;20202;-71
2023/06/28 05:34:52;;;;;;;2.75;1.20;;;19.10;99.90;;;;;;5013697;28;20230;-72
2023/06/28 05:37:18;;;;;;;1.90;1.20;;;19.20;99.90;;;;;;5003817;28;20476;-71
2023/06/28 05:39:46;;;;;;;2.38;1.38;;;19.20;99.90;;;;;;5015953;28;20187;-72
2023/06/28 05:42:12;;;;;;;1.80;1.20;;;19.20;99.90;;;;;;5016105;28;20205;-72
2023/06/28 05:44:40;;;;;;;1.85;0.90;;;19.20;99.90;;;;;;5016262;28;20171;-72
2023/06/28 05:47:06;;;;;;;1.50;1.00;;;19.20;99.90;;;;;;5032538;28;20174;-69
2023/06/28 05:49:37;;;;;;;3.17;1.15;;;19.20;99.90;;;;;;5015805;28;20186;-72
2023/06/28 05:52:03;;;;;;;3.13;1.13;;;19.20;99.90;;;;;;5032170;28;20242;-70
2023/06/28 05:54:29;;;;;;;3.17;1.50;;;19.30;99.90;;;;;;5015995;28;20195;-72
2023/06/28 05:56:57;;;;;;;3.05;1.35;;;19.40;99.90;;;;;;5015037;28;20201;-72
2023/06/28 05:59:22;;;;;;;2.53;1.33;;;19.40;99.90;;;;;;5011318;28;20234;-73
2023/06/28 06:01:50;;;;;;;1.27;1.10;;;19.50;99.90;;;;;;5018036;28;20206;-71
2023/06/28 06:04:18;;;;;;;4.28;1.20;;;19.50;99.90;;;;;;5030900;28;20264;-72
2023/06/28 06:06:48;;;;;;;2.65;1.13;;;19.60;99.90;;;;;;5015946;28;20283;-73
2023/06/28 06:09:16;;;;;;;1.60;0.88;;;19.60;99.90;;;;;;5015766;28;20199;-72
2023/06/28 06:11:42;;;;;;;1.60;0.98;;;19.60;99.90;;;;;;5016079;28;20232;-72
2023/06/28 06:14:12;;;;;;;3.65;0.90;;;19.60;99.90;;;;;;5010026;28;20266;-68
2023/06/28 06:16:42;;;;;;;2.00;1.20;;;19.60;99.90;;;;;;5028388;28;20179;-72
2023/06/28 06:19:11;;;;;;;1.48;0.93;;;19.60;99.90;;;;;;5015546;28;20233;-71
2023/06/28 06:21:38;;;;;;;3.13;1.30;;;19.70;99.90;;;;;;5015483;28;20218;-71
2023/06/28 06:24:07;;;;;;;1.83;1.00;;;19.70;99.90;;;;;;5015366;28;20313;-73
2023/06/28 06:26:34;;;;;;;3.30;1.10;;;19.70;99.90;;;;;;4997085;28;20172;-71
2023/06/28 06:29:00;;;;;;;1.88;1.20;;;19.70;99.90;;;;;;5015263;28;20237;-72
2023/06/28 06:31:26;;;;;;;2.95;1.08;;;19.70;99.90;;;;;;5015290;28;20194;-68
2023/06/28 06:33:51;;;;;;;2.53;1.30;;;19.70;99.90;;;;;;5014825;28;20206;-72
2023/06/28 06:36:17;;;;;;;3.42;1.10;;;19.70;99.90;;;;;;5015193;28;20190;-72
2023/06/28 06:38:42;;;;;;;2.25;0.95;;;19.70;99.90;;;;;;5023310;28;20213;-71
2023/06/28 06:41:13;;;;;;;1.42;1.17;;;19.80;99.90;;;;;;5006849;28;20206;-72
2023/06/28 06:43:39;;;;;;;3.20;1.20;;;19.80;99.90;;;;;;5003728;28;20360;-72
2023/06/28 06:46:05;;;;;;;2.75;1.25;;;19.80;99.90;;;;;;4997514;28;20286;-71
2023/06/28 06:48:32;;;;;;;3.15;1.30;;;19.80;99.90;;;;;;5014844;28;20222;-71
2023/06/28 06:50:58;;;;;;;2.72;1.10;;;19.80;99.90;;;;;;5014613;28;20198;-73
2023/06/28 06:53:24;;;;;;;3.15;1.40;;;19.80;99.90;;;;;;5005461;28;20248;-72
2023/06/28 06:55:49;;;;;;;1.80;1.10;;;19.80;99.90;;;;;;5011685;28;20187;-72
2023/06/28 06:58:15;;;;;;;3.15;1.20;;;19.80;99.90;;;;;;5024576;28;20202;-73
2023/06/28 07:00:43;;;;;;;2.17;1.15;;;19.80;99.90;;;;;;5014739;28;20206;-73
2023/06/28 07:03:08;;;;;;;5.03;1.50;;;19.90;99.90;;;;;;5014782;28;20171;-73
2023/06/28 07:05:34;;;;;;;3.63;1.40;;;19.80;99.90;;;;;;5015189;28;20194;-72
2023/06/28 07:07:59;;;;;;;1.55;0.93;;;19.90;99.90;;;;;;5022669;28;20226;-70
2023/06/28 07:10:27;;;;;;;1.80;1.10;;;19.90;99.90;;;;;;5014587;28;20170;-73
2023/06/28 07:12:55;;;;;;;3.53;1.30;;;20.00;99.90;;;;;;5014681;28;20331;-73
2023/06/28 07:15:21;;;;;;;2.60;1.23;;;20.00;99.90;;;;;;5013957;28;20194;-72
2023/06/28 07:17:46;;;;;;;3.15;1.30;;;20.10;99.90;;;;;;5014568;28;20298;-72
2023/06/28 07:20:14;;;;;;;1.83;1.10;;;20.10;99.90;;;;;;5014552;28;20241;-69
2023/06/28 07:22:40;;;;;;;2.55;1.10;;;20.20;99.90;;;;;;5014623;28;20199;-72
2023/06/28 07:25:08;;;;;;;2.45;1.30;;;20.30;99.90;;;;;;5014427;28;20221;-72
2023/06/28 07:27:36;;;;;;;2.42;1.30;;;20.30;99.90;;;;;;5018215;28;20297;-72
2023/06/28 07:30:06;;;;;;;2.20;1.20;;;20.30;99.90;;;;;;5029582;28;20183;-73
2023/06/28 07:32:32;;;;;;;3.28;1.27;;;20.40;99.80;;;;;;5014417;28;20208;-73
2023/06/28 07:35:00;;;;;;;3.42;1.10;;;20.40;99.40;;;;;;5014595;28;20297;-73
2023/06/28 07:37:26;;;;;;;2.33;0.90;;;20.40;99.20;;;;;;5014340;28;20228;-72
2023/06/28 07:39:52;;;;;;;3.75;1.25;;;20.40;99.20;;;;;;5013947;28;20207;-72
2023/06/28 07:42:23;;;;;;;4.00;1.20;;;20.40;99.20;;;;;;5014262;28;20171;-72
2023/06/28 07:44:52;;;;;;;2.17;1.20;;;20.40;99.10;;;;;;5013791;28;20166;-69
2023/06/28 07:47:18;;;;;;;2.25;1.15;;;20.40;99.10;;;;;;5013998;28;20211;-73
2023/06/28 07:49:43;;;;;;;2.92;1.25;;;20.40;99.10;;;;;;5013867;28;20198;-71
2023/06/28 07:52:09;;;;;;;3.15;1.38;;;20.30;99.00;;;;;;5012688;28;20202;-73
2023/06/28 07:54:35;;;;;;;2.97;1.30;;;20.30;99.00;;;;;;5010234;28;20186;-72
2023/06/28 07:57:01;;;;;;;2.25;1.08;;;20.30;99.00;;;;;;5032197;28;20213;-72
2023/06/28 07:59:29;;;;;;;2.28;1.13;;;20.30;99.10;;;;;;5007471;28;20266;-72
2023/06/28 08:01:55;;;;;;;4.75;1.48;;;20.40;99.30;;;;;;5014235;28;20207;-73
2023/06/28 08:04:22;;;;;;;2.35;1.23;;;20.40;99.20;;;;;;5013629;28;20175;-72
2023/06/28 08:06:47;;;;;;;2.45;1.25;;;20.40;99.20;;;;;;5013725;28;20170;-70
2023/06/28 08:09:13;;;;;;;2.03;1.15;;;20.40;99.10;;;;;;5013973;28;20225;-73
2023/06/28 08:11:39;;;;;;;2.10;1.58;;;20.40;99.10;;;;;;5013588;28;20301;-72
2023/06/28 08:14:05;;;;;;;2.40;1.30;;;20.40;99.00;;;;;;5006037;28;20269;-72
2023/06/28 08:16:31;;;;;;;2.33;1.30;;;20.50;99.10;;;;;;5013994;28;20274;-73
2023/06/28 08:18:57;;;;;;;1.67;1.10;;;20.50;99.10;;;;;;5013711;28;20199;-73
2023/06/28 08:21:25;;;;;;;2.40;1.30;;;20.50;99.10;;;;;;5016376;28;20289;-72
2023/06/28 08:23:52;;;;;;;2.17;1.52;;;20.50;99.10;;;;;;5030497;28;20326;-72
2023/06/28 08:26:18;;;;;;;2.45;1.40;;;20.60;99.20;;;;;;4997965;28;20171;-72
2023/06/28 08:28:44;;;;;;;2.22;1.20;;;20.60;99.30;;;;;;5023747;28;20193;-73
2023/06/28 08:31:09;;;;;;;4.35;1.55;;;20.60;99.40;;;;;;5017224;28;20217;-72
2023/06/28 08:33:37;;;;;;;5.00;1.52;;;20.80;99.50;;;;;;5017465;28;20183;-69
2023/06/28 08:36:03;;;;;;;3.22;1.30;;;20.80;99.40;;;;;;5017325;28;20182;-72
2023/06/28 08:38:28;;;;;;;2.58;1.55;;;20.90;99.50;;;;;;5017451;28;20174;-72
2023/06/28 08:40:54;;;;;;;2.65;1.48;;;20.90;99.30;;;;;;5016768;28;20202;-71
2023/06/28 08:43:23;;;;;;;1.95;1.20;;;21.00;99.20;;;;;;5017355;28;20226;-73
2023/06/28 08:45:49;;;;;;;3.75;1.50;;;21.10;99.30;;;;;;5017004;28;20202;-71
2023/06/28 08:48:16;;;;;;;2.40;1.58;;;21.20;99.10;;;;;;5017947;28;20228;-73
2023/06/28 08:50:46;;;;;;;5.82;1.60;;;21.20;99.00;;;;;;5017671;28;20257;-73
2023/06/28 08:53:18;;;;;;;1.83;1.10;;;21.30;98.90;;;;;;5019508;28;20202;-73
2023/06/28 08:55:45;;;;;;;3.58;1.15;;;21.30;98.80;;;;;;5017852;28;20175;-72
2023/06/28 08:58:16;;;;;;;4.03;1.67;;;21.30;99.00;;;;;;5016727;28;20203;-73
2023/06/28 09:00:44;;;;;;;3.47;1.27;;;21.40;99.10;;;;;;5017360;28;20198;-73
2023/06/28 09:03:10;;;;;;;3.70;1.27;;;21.50;99.20;;;;;;5033649;28;20190;-73
2023/06/28 09:05:38;;;;;;;3.30;1.27;;;21.60;99.10;;;;;;5013856;28;20242;-68
2023/06/28 09:08:08;;;;;;;4.20;1.50;;;21.70;98.80;;;;;;5010448;28;20270;-67
2023/06/28 09:10:38;;;;;;;2.70;1.40;;;21.70;98.50;;;;;;5032864;28;20210;-70
2023/06/28 09:13:05;;;;;;;3.88;1.60;;;21.80;98.50;;;;;;5016610;28;20213;-68
2023/06/28 09:15:33;;;;;;;5.60;1.35;;;21.80;98.40;;;;;;5016328;28;20206;-68
2023/06/28 09:17:58;;;;;;;1.80;1.10;;;21.90;98.30;;;;;;5017624;28;20182;-69
2023/06/28 09:20:24;;;;;;;1.77;1.23;;;21.90;98.30;;;;;;5036393;28;20216;-68
2023/06/28 09:22:58;;;;;;;2.15;1.27;;;21.90;97.90;;;;;;5035864;28;20220;-69
2023/06/28 09:25:29;;;;;;;2.83;1.30;;;21.90;97.10;;;;;;5016453;28;20240;-68
2023/06/28 09:27:58;;;;;;;3.72;1.08;;;21.80;96.90;;;;;;5017533;28;20178;-68
2023/06/28 09:30:24;;;;;;;2.60;1.23;;;21.80;96.80;;;;;;5016542;28;20233;-69
2023/06/28 09:32:52;;;;;;;3.47;1.17;;;21.70;96.70;;;;;;5012002;28;20187;-69
2023/06/28 09:35:19;;;;;;;1.23;0.90;;;21.70;96.60;;;;;;5006715;28;20187;-68
2023/06/28 09:37:55;;;;;;;2.33;1.30;;;21.70;96.50;;;;;;5016564;28;20261;-69
2023/06/28 09:40:23;;;;;;;3.03;1.45;;;21.70;96.30;;;;;;5016307;28;20267;-68
2023/06/28 09:42:50;;;;;;;2.70;1.27;;;21.60;96.60;;;;;;5017137;28;20252;-68
2023/06/28 09:45:28;;;;;;;1.98;1.10;;;21.70;96.70;;;;;;5017146;28;20221;-68
2023/06/28 09:48:04;;;;;;;2.80;1.35;;;21.70;96.50;;;;;;5014381;28;20309;-69
2023/06/28 09:50:46;;;;;;;4.03;1.20;;;21.80;96.60;;;;;;5040129;28;20197;-69
2023/06/28 09:53:15;;;;;;;2.35;1.20;;;21.80;96.40;;;;;;5015688;28;20221;-69
2023/06/28 09:55:42;;;;;;;3.40;1.30;;;21.90;96.60;;;;;;5016079;28;20182;-68
2023/06/28 09:58:10;;;;;;;2.72;1.25;;;21.90;96.60;;;;;;5015895;28;20195;-69
2023/06/28 10:00:41;;;;;;;2.45;1.40;;;22.00;96.70;;;;;;5015756;28;20194;-68
2023/06/28 10:03:13;;;;;;;2.42;1.20;;;22.10;96.70;;;;;;5015983;28;20252;-68
2023/06/28 10:05:43;;;;;;;1.90;1.30;;;22.20;96.70;;;;;;5015620;28;20175;-69
2023/06/28 10:08:13;;;;;;;2.33;1.35;;;22.30;96.30;;;;;;5015745;28;20390;-69
2023/06/28 10:10:40;;;;;;;3.58;1.30;;;22.40;95.70;;;;;;5030099;28;20183;-69
2023/06/28 10:13:09;;;;;;;3.55;1.30;;;22.40;95.40;;;;;;5032265;28;20178;-69
2023/06/28 10:15:48;;;;;;;2.05;1.40;;;22.40;95.30;;;;;;5011199;28;20207;-68
2023/06/28 10:18:15;;;;;;;3.35;1.20;;;22.40;94.70;;;;;;5011276;28;20254;-69
2023/06/28 10:20:41;;;;;;;2.75;1.08;;;22.40;95.00;;;;;;5009297;28;20301;-69
2023/06/28 10:23:13;;;;;;;2.50;1.17;;;22.50;94.80;;;;;;5010971;28;20322;-68
2023/06/28 10:25:46;;;;;;;2.42;1.00;;;22.50;94.40;;;;;;5005865;28;20209;-68
2023/06/28 10:28:17;;;;;;;1.50;0.90;;;22.40;94.10;;;;;;5015431;28;20174;-68
2023/06/28 10:30:45;;;;;;;2.20;1.38;;;22.40;94.10;;;;;;5015254;28;20229;-69
2023/06/28 10:33:14;;;;;;;2.90;1.30;;;22.40;94.40;;;;;;5012066;28;20191;-68
2023/06/28 10:35:43;;;;;;;7.82;4.57;;;22.40;94.40;;;;;;5005296;28;20194;-68
2023/06/28 10:38:09;;;;;;;5.43;3.35;;;22.40;94.50;;;;;;5012387;28;20187;-69
2023/06/28 10:40:35;;;;;;;3.88;2.33;;;22.50;94.70;;;;;;5007505;28;20245;-68
2023/06/28 10:43:03;;;;;;;4.07;2.38;;;22.50;94.60;;;;;;5014675;28;20213;-70
2023/06/28 10:45:36;;;;;;;4.22;1.90;;;22.50;94.20;;;;;;5015097;28;20182;-69
2023/06/28 10:48:04;;;;;;;3.25;1.40;;;22.50;94.00;;;;;;5012550;28;20214;-68
2023/06/28 10:50:42;;;;;;;2.97;1.30;;;22.40;94.20;;;;;;5014823;28;20280;-67
2023/06/28 10:53:25;;;;;;;3.25;1.55;;;22.40;94.10;;;;;;5010380;28;20278;-68
2023/06/28 10:56:10;;;;;;;4.05;1.67;;;22.50;94.30;;;;;;5000409;28;20246;-68
2023/06/28 10:58:40;;;;;;;2.38;1.27;;;22.50;94.20;;;;;;5011983;28;20238;-68
2023/06/28 11:01:12;;;;;;;4.20;1.30;;;22.70;94.70;;;;;;5019601;28;20202;-68
2023/06/28 11:03:42;;;;;;;2.67;1.30;;;22.80;94.30;;;;;;5014838;28;20194;-68
2023/06/28 11:06:11;;;;;;;1.70;1.20;;;22.90;94.40;;;;;;5008507;28;20199;-68
2023/06/28 11:08:38;;;;;;;3.13;1.20;;;23.00;94.20;;;;;;5001131;28;20203;-67
2023/06/28 11:11:06;;;;;;;3.45;1.30;;;23.10;94.10;;;;;;5010209;28;20241;-68
2023/06/28 11:13:42;;;;;;;1.75;1.13;;;23.10;93.80;;;;;;5014289;28;20190;-67
2023/06/28 11:16:18;;;;;;;2.20;1.38;;;23.10;93.30;;;;;;5014578;28;20170;-68
2023/06/28 11:18:45;;;;;;;3.08;1.30;;;23.10;93.10;;;;;;5014719;28;20182;-67
2023/06/28 11:21:21;;;;;;;2.35;1.45;;;23.00;92.90;;;;;;5014584;28;20203;-68
2023/06/28 11:23:51;;;;;;;2.50;1.30;;;22.90;92.70;;;;;;5011520;28;20199;-68
2023/06/28 11:26:30;;;;;;;3.55;1.40;;;22.70;93.00;;;;;;5008070;28;20175;-68
2023/06/28 11:28:56;;;;;;;2.67;1.38;;;22.70;93.20;;;;;;5014547;28;20188;-69
2023/06/28 11:31:23;;;;;;;3.88;1.30;;;22.70;93.30;;;;;;5014214;28;20202;-68
2023/06/28 11:33:52;;;;;;;2.28;1.30;;;22.70;93.30;;;;;;5014302;28;20179;-69
2023/06/28 11:36:23;;;;;;;2.75;1.27;;;22.80;93.30;;;;;;5014136;28;20248;-69
2023/06/28 11:38:53;;;;;;;2.15;1.38;;;22.90;93.60;;;;;;5014156;28;20442;-69
2023/06/28 11:41:19;;;;;;;2.38;1.30;;;22.90;93.50;;;;;;5014237;28;20217;-69
2023/06/28 11:43:48;;;;;;;3.83;1.27;;;23.00;93.50;;;;;;5014040;28;20178;-69
2023/06/28 11:46:18;;;;;;;2.83;1.30;;;23.00;93.30;;;;;;5014029;28;20198;-68
2023/06/28 11:48:46;;;;;;;2.45;1.20;;;23.10;93.10;;;;;;5001138;28;20180;-68
2023/06/28 11:51:12;;;;;;;1.92;1.10;;;23.10;93.30;;;;;;5005190;28;20201;-68
2023/06/28 11:53:38;;;;;;;1.98;1.23;;;23.10;93.20;;;;;;5010866;28;20233;-69
2023/06/28 11:56:04;;;;;;;2.78;1.40;;;23.10;93.20;;;;;;4993916;28;20199;-69
2023/06/28 11:58:32;;;;;;;3.67;1.40;;;23.20;93.20;;;;;;4994262;28;20195;-68
2023/06/28 12:00:59;;;;;;;1.85;1.20;;;23.30;93.10;;;;;;4993943;28;20294;-68
2023/06/28 12:03:37;;;;;;;2.70;2.03;;;23.30;93.00;;;;;;5010137;28;20206;-69
2023/06/28 12:06:09;;;;;;;3.50;1.60;;;23.30;92.70;;;;;;5013793;28;20353;-69
2023/06/28 12:08:44;;;;;;;2.35;1.58;;;23.30;92.80;;;;;;5029674;28;20208;-69
2023/06/28 12:11:14;;;;;;;2.40;1.13;;;23.30;92.90;;;;;;5033770;28;20176;-68
2023/06/28 12:13:40;;;;;;;2.15;1.25;;;23.40;93.20;;;;;;5031243;28;20194;-68
2023/06/28 12:16:14;;;;;;;3.50;1.55;;;23.50;93.30;;;;;;5013848;28;20209;-68
2023/06/28 12:19:02;;;;;;;2.95;1.58;;;23.60;93.00;;;;;;5013455;28;20177;-68
2023/06/28 12:21:29;;;;;;;3.00;1.40;;;23.80;92.90;;;;;;5013929;28;20293;-68
2023/06/28 12:24:14;;;;;;;2.55;1.52;;;23.90;93.30;;;;;;5013738;28;20170;-70
2023/06/28 12:26:42;;;;;;;3.55;1.40;;;24.00;92.90;;;;;;5026563;28;20179;-68
2023/06/28 12:29:10;;;;;;;2.38;1.30;;;24.10;93.00;;;;;;5013913;28;20265;-68
2023/06/28 12:31:50;;;;;;;2.50;1.52;;;24.10;92.80;;;;;;5013848;28;20261;-68
2023/06/28 12:34:27;;;;;;;4.05;1.70;;;24.10;92.70;;;;;;5013954;28;20274;-69
2023/06/28 12:37:06;;;;;;;4.20;1.80;;;24.10;92.40;;;;;;5013066;28;20182;-68
2023/06/28 12:39:36;;;;;;;2.85;1.75;;;24.10;92.30;;;;;;5013579;28;20174;-69
2023/06/28 12:42:06;;;;;;;2.17;1.45;;;24.10;92.60;;;;;;5013254;28;20207;-68
2023/06/28 12:44:53;;;;;;;2.38;1.45;;;24.10;92.70;;;;;;5013389;28;20183;-70
2023/06/28 12:47:22;;;;;;;3.67;2.30;;;24.20;92.40;;;;;;5013338;28;20194;-69
2023/06/28 12:49:51;;;;;;;3.47;1.88;;;24.20;92.40;;;;;;5023707;28;20231;-68
2023/06/28 12:52:18;;;;;;;4.40;1.80;;;24.20;92.30;;;;;;4993609;28;20210;-68